sensor_id;sensor_type;location;lat;lon;timestamp;pressure;altitude;pressure_sealevel;temperature;humidity
17781;BME280;8498;52.516;13.790;2023-05-19T00:03:31;102207.66;;;10.22;72.36
17781;BME280;8498;52.516;13.790;2023-05-19T00:08:57;102209.97;;;10.08;73.09
17781;BME280;8498;52.516;13.790;2023-05-19T00:14:20;102217.50;;;9.97;73.31
17781;BME280;8498;52.516;13.790;2023-05-19T00:19:43;102217.03;;;9.87;74.01
17781;BME280;8498;52.516;13.790;2023-05-19T00:25:06;102211.19;;;9.79;73.95
17781;BME280;8498;52.516;13.790;2023-05-19T00:30:29;102212.41;;;9.71;74.40
17781;BME280;8498;52.516;13.790;2023-05-19T00:35:52;102206.84;;;9.77;74.07
17781;BME280;8498;52.516;13.790;2023-05-19T00:41:15;102205.69;;;9.62;73.71
17781;BME280;8498;52.516;13.790;2023-05-19T00:46:37;102209.13;;;9.42;75.44
17781;BME280;8498;52.516;13.790;2023-05-19T00:52:00;102209.81;;;9.47;75.02
17781;BME280;8498;52.516;13.790;2023-05-19T00:57:23;102214.91;;;9.30;75.24
17781;BME280;8498;52.516;13.790;2023-05-19T01:02:47;102208.22;;;9.20;75.82
17781;BME280;8498;52.516;13.790;2023-05-19T01:08:09;102213.75;;;9.14;76.60
17781;BME280;8498;52.516;13.790;2023-05-19T01:13:33;102213.94;;;9.09;76.97
17781;BME280;8498;52.516;13.790;2023-05-19T01:19:00;102217.97;;;8.96;77.38
17781;BME280;8498;52.516;13.790;2023-05-19T01:24:55;102211.25;;;8.86;77.62
17781;BME280;8498;52.516;13.790;2023-05-19T01:30:32;102218.06;;;8.70;78.33
17781;BME280;8498;52.516;13.790;2023-05-19T01:35:56;102209.28;;;8.68;79.46
17781;BME280;8498;52.516;13.790;2023-05-19T01:41:21;102208.75;;;8.58;79.81
17781;BME280;8498;52.516;13.790;2023-05-19T01:46:45;102213.09;;;8.61;79.24
17781;BME280;8498;52.516;13.790;2023-05-19T01:52:09;102217.72;;;8.54;79.25
17781;BME280;8498;52.516;13.790;2023-05-19T02:09:19;102221.91;;;8.35;81.11
17781;BME280;8498;52.516;13.790;2023-05-19T02:15:05;102209.94;;;8.50;80.94
17781;BME280;8498;52.516;13.790;2023-05-19T02:20:29;102211.88;;;8.44;80.84
17781;BME280;8498;52.516;13.790;2023-05-19T02:25:52;102212.78;;;8.43;81.82
17781;BME280;8498;52.516;13.790;2023-05-19T02:31:14;102203.56;;;8.55;83.04
17781;BME280;8498;52.516;13.790;2023-05-19T02:36:39;102208.19;;;8.73;82.99
17781;BME280;8498;52.516;13.790;2023-05-19T02:42:04;102207.00;;;8.82;82.86
17781;BME280;8498;52.516;13.790;2023-05-19T02:47:26;102206.44;;;8.97;83.00
17781;BME280;8498;52.516;13.790;2023-05-19T02:52:49;102202.81;;;9.00;82.36
17781;BME280;8498;52.516;13.790;2023-05-19T02:58:11;102190.63;;;8.94;82.08
17781;BME280;8498;52.516;13.790;2023-05-19T03:03:34;102198.53;;;8.96;82.45
17781;BME280;8498;52.516;13.790;2023-05-19T03:08:56;102190.59;;;8.96;82.06
17781;BME280;8498;52.516;13.790;2023-05-19T03:14:18;102187.13;;;8.94;82.25
17781;BME280;8498;52.516;13.790;2023-05-19T03:19:47;102192.50;;;8.92;82.40
17781;BME280;8498;52.516;13.790;2023-05-19T03:25:09;102193.13;;;8.99;82.12
17781;BME280;8498;52.516;13.790;2023-05-19T03:30:32;102196.59;;;9.01;81.70
17781;BME280;8498;52.516;13.790;2023-05-19T03:36:06;102203.28;;;9.11;81.59
17781;BME280;8498;52.516;13.790;2023-05-19T03:41:32;102205.16;;;9.31;80.84
17781;BME280;8498;52.516;13.790;2023-05-19T03:46:55;102203.47;;;9.51;79.63
17781;BME280;8498;52.516;13.790;2023-05-19T03:52:40;102196.06;;;9.60;79.27
17781;BME280;8498;52.516;13.790;2023-05-19T03:58:26;102193.84;;;9.71;78.80
17781;BME280;8498;52.516;13.790;2023-05-19T04:03:51;102203.59;;;9.92;78.10
17781;BME280;8498;52.516;13.790;2023-05-19T04:09:14;102211.91;;;10.05;77.49
17781;BME280;8498;52.516;13.790;2023-05-19T04:14:37;102208.69;;;10.18;77.01
17781;BME280;8498;52.516;13.790;2023-05-19T04:19:59;102216.22;;;10.29;76.32
17781;BME280;8498;52.516;13.790;2023-05-19T04:25:22;102209.72;;;10.36;75.99
17781;BME280;8498;52.516;13.790;2023-05-19T04:30:46;102216.97;;;10.53;75.28
17781;BME280;8498;52.516;13.790;2023-05-19T04:36:09;102210.38;;;10.61;75.30
17781;BME280;8498;52.516;13.790;2023-05-19T04:41:36;102205.56;;;10.70;75.25
17781;BME280;8498;52.516;13.790;2023-05-19T04:47:03;102216.47;;;10.84;75.21
17781;BME280;8498;52.516;13.790;2023-05-19T04:52:27;102214.94;;;10.98;74.41
17781;BME280;8498;52.516;13.790;2023-05-19T04:57:50;102218.47;;;11.18;74.18
17781;BME280;8498;52.516;13.790;2023-05-19T05:03:14;102210.50;;;11.36;73.58
17781;BME280;8498;52.516;13.790;2023-05-19T05:08:37;102212.50;;;11.50;72.53
17781;BME280;8498;52.516;13.790;2023-05-19T05:14:01;102212.63;;;11.66;71.94
17781;BME280;8498;52.516;13.790;2023-05-19T05:19:25;102215.53;;;11.80;71.78
17781;BME280;8498;52.516;13.790;2023-05-19T05:24:48;102214.59;;;11.98;71.51
17781;BME280;8498;52.516;13.790;2023-05-19T05:30:12;102212.13;;;12.12;71.43
17781;BME280;8498;52.516;13.790;2023-05-19T05:35:36;102209.31;;;12.33;70.98
17781;BME280;8498;52.516;13.790;2023-05-19T05:41:00;102208.59;;;12.46;70.90
17781;BME280;8498;52.516;13.790;2023-05-19T05:46:25;102213.28;;;12.59;70.04
17781;BME280;8498;52.516;13.790;2023-05-19T05:51:48;102214.53;;;12.86;69.12
17781;BME280;8498;52.516;13.790;2023-05-19T05:57:29;102210.84;;;13.04;69.34
17781;BME280;8498;52.516;13.790;2023-05-19T06:02:52;102216.50;;;13.15;67.83
17781;BME280;8498;52.516;13.790;2023-05-19T06:08:14;102213.19;;;13.28;67.38
17781;BME280;8498;52.516;13.790;2023-05-19T06:13:39;102215.59;;;13.48;67.52
17781;BME280;8498;52.516;13.790;2023-05-19T06:19:10;102206.03;;;13.59;67.42
17781;BME280;8498;52.516;13.790;2023-05-19T06:24:33;102203.50;;;13.72;67.02
17781;BME280;8498;52.516;13.790;2023-05-19T06:29:56;102211.97;;;13.80;65.91
17781;BME280;8498;52.516;13.790;2023-05-19T06:35:19;102217.81;;;13.87;65.97
17781;BME280;8498;52.516;13.790;2023-05-19T06:40:42;102212.31;;;13.90;66.14
17781;BME280;8498;52.516;13.790;2023-05-19T06:46:05;102219.41;;;14.05;65.86
17781;BME280;8498;52.516;13.790;2023-05-19T06:51:27;102220.56;;;14.31;65.36
17781;BME280;8498;52.516;13.790;2023-05-19T06:56:51;102213.66;;;14.43;65.22
17781;BME280;8498;52.516;13.790;2023-05-19T07:02:14;102211.66;;;14.46;64.79
17781;BME280;8498;52.516;13.790;2023-05-19T07:07:37;102223.25;;;14.61;62.59
17781;BME280;8498;52.516;13.790;2023-05-19T07:13:05;102227.09;;;14.85;63.96
17781;BME280;8498;52.516;13.790;2023-05-19T07:18:29;102223.38;;;15.02;61.50
17781;BME280;8498;52.516;13.790;2023-05-19T07:23:53;102221.47;;;15.04;62.40
17781;BME280;8498;52.516;13.790;2023-05-19T07:29:15;102227.00;;;15.29;62.11
17781;BME280;8498;52.516;13.790;2023-05-19T07:34:39;102225.06;;;15.46;62.57
17781;BME280;8498;52.516;13.790;2023-05-19T07:40:01;102222.97;;;15.65;61.28
17781;BME280;8498;52.516;13.790;2023-05-19T07:45:24;102225.38;;;15.82;60.40
17781;BME280;8498;52.516;13.790;2023-05-19T07:50:47;102219.66;;;15.88;60.47
17781;BME280;8498;52.516;13.790;2023-05-19T07:56:09;102209.03;;;15.99;58.80
17781;BME280;8498;52.516;13.790;2023-05-19T08:01:32;102196.34;;;16.15;59.91
17781;BME280;8498;52.516;13.790;2023-05-19T08:06:55;102198.84;;;16.44;58.82
17781;BME280;8498;52.516;13.790;2023-05-19T08:12:18;102206.06;;;16.56;57.43
17781;BME280;8498;52.516;13.790;2023-05-19T08:17:40;102193.66;;;16.80;58.79
17781;BME280;8498;52.516;13.790;2023-05-19T08:23:02;102204.16;;;17.09;55.13
17781;BME280;8498;52.516;13.790;2023-05-19T08:28:25;102202.19;;;17.23;55.42
17781;BME280;8498;52.516;13.790;2023-05-19T08:33:47;102190.31;;;17.51;52.85
17781;BME280;8498;52.516;13.790;2023-05-19T08:39:12;102196.53;;;17.65;53.04
17781;BME280;8498;52.516;13.790;2023-05-19T08:44:37;102200.78;;;17.80;52.54
17781;BME280;8498;52.516;13.790;2023-05-19T08:50:05;102196.84;;;18.31;51.73
17781;BME280;8498;52.516;13.790;2023-05-19T09:00:56;102181.81;;;19.09;47.86
17781;BME280;8498;52.516;13.790;2023-05-19T09:06:21;102171.69;;;19.44;47.71
17781;BME280;8498;52.516;13.790;2023-05-19T09:11:45;102175.97;;;20.01;46.17
17781;BME280;8498;52.516;13.790;2023-05-19T09:17:08;102160.56;;;19.92;45.62
17781;BME280;8498;52.516;13.790;2023-05-19T09:22:30;102150.59;;;20.24;44.34
17781;BME280;8498;52.516;13.790;2023-05-19T09:27:56;102143.94;;;20.07;45.05
17781;BME280;8498;52.516;13.790;2023-05-19T09:33:19;102148.31;;;19.56;45.38
17781;BME280;8498;52.516;13.790;2023-05-19T09:38:41;102142.28;;;20.16;45.14
17781;BME280;8498;52.516;13.790;2023-05-19T09:44:04;102146.63;;;20.28;43.85
17781;BME280;8498;52.516;13.790;2023-05-19T09:49:28;102142.50;;;20.03;44.71
17781;BME280;8498;52.516;13.790;2023-05-19T09:54:51;102141.59;;;20.14;43.07
17781;BME280;8498;52.516;13.790;2023-05-19T10:00:17;102134.63;;;19.79;41.86
17781;BME280;8498;52.516;13.790;2023-05-19T10:05:39;102131.34;;;19.97;42.27
17781;BME280;8498;52.516;13.790;2023-05-19T10:11:04;102121.84;;;20.13;43.59
17781;BME280;8498;52.516;13.790;2023-05-19T10:16:27;102114.94;;;20.41;42.55
17781;BME280;8498;52.516;13.790;2023-05-19T10:21:52;102114.78;;;20.64;40.07
17781;BME280;8498;52.516;13.790;2023-05-19T10:27:15;102114.22;;;20.39;40.32
17781;BME280;8498;52.516;13.790;2023-05-19T10:32:42;102109.41;;;20.22;40.47
17781;BME280;8498;52.516;13.790;2023-05-19T10:38:23;102112.59;;;20.88;41.08
17781;BME280;8498;52.516;13.790;2023-05-19T10:43:57;102107.75;;;20.82;40.49
17781;BME280;8498;52.516;13.790;2023-05-19T10:49:24;102109.72;;;20.80;40.66
17781;BME280;8498;52.516;13.790;2023-05-19T10:54:46;102106.75;;;20.52;39.80
17781;BME280;8498;52.516;13.790;2023-05-19T11:00:29;102102.34;;;20.51;40.46
17781;BME280;8498;52.516;13.790;2023-05-19T11:06:20;102095.44;;;21.77;39.04
17781;BME280;8498;52.516;13.790;2023-05-19T11:11:53;102096.28;;;21.87;39.24
17781;BME280;8498;52.516;13.790;2023-05-19T11:17:15;102078.91;;;21.51;37.37
17781;BME280;8498;52.516;13.790;2023-05-19T11:22:40;102087.19;;;21.69;39.45
17781;BME280;8498;52.516;13.790;2023-05-19T11:28:02;102083.75;;;21.38;39.71
17781;BME280;8498;52.516;13.790;2023-05-19T11:33:26;102084.75;;;21.47;38.38
17781;BME280;8498;52.516;13.790;2023-05-19T11:38:49;102084.16;;;21.34;39.80
17781;BME280;8498;52.516;13.790;2023-05-19T11:44:12;102081.97;;;21.18;39.74
17781;BME280;8498;52.516;13.790;2023-05-19T11:49:35;102073.94;;;20.97;40.71
17781;BME280;8498;52.516;13.790;2023-05-19T11:55:00;102066.06;;;21.92;39.21
17781;BME280;8498;52.516;13.790;2023-05-19T12:00:34;102059.03;;;22.38;38.72
17781;BME280;8498;52.516;13.790;2023-05-19T12:06:02;102068.00;;;22.38;38.37
17781;BME280;8498;52.516;13.790;2023-05-19T12:11:27;102063.81;;;22.07;39.17
17781;BME280;8498;52.516;13.790;2023-05-19T12:16:52;102064.22;;;22.58;37.65
17781;BME280;8498;52.516;13.790;2023-05-19T12:22:18;102073.56;;;22.83;38.49
17781;BME280;8498;52.516;13.790;2023-05-19T12:27:41;102062.47;;;22.30;37.19
17781;BME280;8498;52.516;13.790;2023-05-19T12:33:04;102063.84;;;21.49;39.37
17781;BME280;8498;52.516;13.790;2023-05-19T12:38:27;102070.09;;;21.59;40.29
17781;BME280;8498;52.516;13.790;2023-05-19T12:43:49;102063.13;;;22.51;38.71
17781;BME280;8498;52.516;13.790;2023-05-19T12:49:12;102065.25;;;22.85;37.53
17781;BME280;8498;52.516;13.790;2023-05-19T12:54:35;102050.34;;;22.98;38.04
17781;BME280;8498;52.516;13.790;2023-05-19T13:00:12;102050.28;;;22.07;37.77
17781;BME280;8498;52.516;13.790;2023-05-19T13:05:37;102047.00;;;21.74;39.57
17781;BME280;8498;52.516;13.790;2023-05-19T13:11:00;102044.72;;;21.89;39.20
17781;BME280;8498;52.516;13.790;2023-05-19T13:16:23;102037.06;;;21.65;39.08
17781;BME280;8498;52.516;13.790;2023-05-19T13:21:46;102042.88;;;21.89;39.56
17781;BME280;8498;52.516;13.790;2023-05-19T13:27:09;102048.16;;;22.01;39.12
17781;BME280;8498;52.516;13.790;2023-05-19T13:32:32;102040.91;;;22.38;38.31
17781;BME280;8498;52.516;13.790;2023-05-19T13:37:55;102045.34;;;22.39;38.87
17781;BME280;8498;52.516;13.790;2023-05-19T13:43:17;102034.34;;;21.75;40.19
17781;BME280;8498;52.516;13.790;2023-05-19T13:48:39;102036.47;;;21.71;40.53
17781;BME280;8498;52.516;13.790;2023-05-19T13:54:02;102034.44;;;20.96;41.27
17781;BME280;8498;52.516;13.790;2023-05-19T13:59:25;102030.75;;;21.16;39.87
17781;BME280;8498;52.516;13.790;2023-05-19T14:04:47;102041.00;;;21.80;39.57
17781;BME280;8498;52.516;13.790;2023-05-19T14:10:10;102037.91;;;21.66;40.00
17781;BME280;8498;52.516;13.790;2023-05-19T14:15:33;102044.47;;;21.53;40.10
17781;BME280;8498;52.516;13.790;2023-05-19T14:20:59;102031.22;;;21.41;40.17
17781;BME280;8498;52.516;13.790;2023-05-19T14:26:21;102044.47;;;21.24;41.20
17781;BME280;8498;52.516;13.790;2023-05-19T14:31:44;102048.34;;;21.01;41.05
17781;BME280;8498;52.516;13.790;2023-05-19T14:37:06;102054.22;;;20.66;41.40
17781;BME280;8498;52.516;13.790;2023-05-19T14:42:29;102051.31;;;21.38;40.26
17781;BME280;8498;52.516;13.790;2023-05-19T14:47:52;102058.16;;;22.84;38.45
17781;BME280;8498;52.516;13.790;2023-05-19T14:53:14;102050.69;;;22.02;39.52
17781;BME280;8498;52.516;13.790;2023-05-19T14:58:37;102062.38;;;22.03;38.71
17781;BME280;8498;52.516;13.790;2023-05-19T15:04:00;102049.22;;;22.27;38.36
17781;BME280;8498;52.516;13.790;2023-05-19T15:09:22;102043.44;;;22.03;38.35
17781;BME280;8498;52.516;13.790;2023-05-19T15:14:45;102058.25;;;22.08;37.74
17781;BME280;8498;52.516;13.790;2023-05-19T15:20:07;102044.72;;;22.08;37.35
17781;BME280;8498;52.516;13.790;2023-05-19T15:25:30;102042.88;;;22.46;37.16
17781;BME280;8498;52.516;13.790;2023-05-19T15:30:53;102036.50;;;22.37;37.16
17781;BME280;8498;52.516;13.790;2023-05-19T15:36:15;102029.09;;;22.39;36.39
17781;BME280;8498;52.516;13.790;2023-05-19T15:41:38;102035.25;;;22.22;36.09
17781;BME280;8498;52.516;13.790;2023-05-19T15:47:02;102035.91;;;21.77;36.61
17781;BME280;8498;52.516;13.790;2023-05-19T15:52:25;102043.03;;;21.20;38.60
17781;BME280;8498;52.516;13.790;2023-05-19T15:57:48;102041.09;;;20.52;39.75
17781;BME280;8498;52.516;13.790;2023-05-19T16:03:10;102037.09;;;20.46;40.09
17781;BME280;8498;52.516;13.790;2023-05-19T16:08:33;102034.78;;;20.11;40.48
17781;BME280;8498;52.516;13.790;2023-05-19T16:13:56;102023.84;;;20.13;41.06
17781;BME280;8498;52.516;13.790;2023-05-19T16:19:18;102023.34;;;20.29;41.28
17781;BME280;8498;52.516;13.790;2023-05-19T16:24:41;102020.63;;;20.49;40.88
17781;BME280;8498;52.516;13.790;2023-05-19T16:30:03;102014.31;;;21.58;39.17
17781;BME280;8498;52.516;13.790;2023-05-19T16:35:26;102014.50;;;21.93;38.73
17781;BME280;8498;52.516;13.790;2023-05-19T16:40:51;102009.16;;;21.16;39.84
17781;BME280;8498;52.516;13.790;2023-05-19T16:46:13;102005.06;;;20.63;40.92
17781;BME280;8498;52.516;13.790;2023-05-19T16:51:36;102013.22;;;20.42;41.35
17781;BME280;8498;52.516;13.790;2023-05-19T16:56:58;102014.97;;;20.01;41.91
17781;BME280;8498;52.516;13.790;2023-05-19T17:02:20;102020.25;;;19.61;42.23
17781;BME280;8498;52.516;13.790;2023-05-19T17:07:43;102019.88;;;19.23;42.84
17781;BME280;8498;52.516;13.790;2023-05-19T17:13:06;102027.28;;;19.10;43.25
17781;BME280;8498;52.516;13.790;2023-05-19T17:18:28;102025.06;;;19.03;43.16
17781;BME280;8498;52.516;13.790;2023-05-19T17:23:52;102017.16;;;18.80;44.04
17781;BME280;8498;52.516;13.790;2023-05-19T17:29:14;102024.78;;;18.63;44.19
17781;BME280;8498;52.516;13.790;2023-05-19T17:34:37;102028.19;;;18.54;44.52
17781;BME280;8498;52.516;13.790;2023-05-19T17:40:00;102036.38;;;18.53;45.16
17781;BME280;8498;52.516;13.790;2023-05-19T17:45:23;102040.56;;;18.46;45.16
17781;BME280;8498;52.516;13.790;2023-05-19T17:50:46;102041.16;;;18.27;45.84
17781;BME280;8498;52.516;13.790;2023-05-19T17:56:10;102048.84;;;18.20;45.92
17781;BME280;8498;52.516;13.790;2023-05-19T18:01:33;102046.88;;;18.22;46.42
17781;BME280;8498;52.516;13.790;2023-05-19T18:06:57;102045.03;;;18.12;46.70
17781;BME280;8498;52.516;13.790;2023-05-19T18:12:20;102056.63;;;18.01;47.56
17781;BME280;8498;52.516;13.790;2023-05-19T18:17:44;102050.25;;;17.91;47.83
17781;BME280;8498;52.516;13.790;2023-05-19T18:23:06;102061.47;;;17.74;48.65
17781;BME280;8498;52.516;13.790;2023-05-19T18:28:28;102057.19;;;17.58;49.05
17781;BME280;8498;52.516;13.790;2023-05-19T18:33:51;102058.75;;;17.50;49.40
17781;BME280;8498;52.516;13.790;2023-05-19T18:39:13;102063.75;;;17.43;50.03
17781;BME280;8498;52.516;13.790;2023-05-19T18:44:36;102059.69;;;17.38;49.68
17781;BME280;8498;52.516;13.790;2023-05-19T18:49:58;102067.06;;;17.23;50.26
17781;BME280;8498;52.516;13.790;2023-05-19T18:55:22;102066.47;;;17.07;50.92
17781;BME280;8498;52.516;13.790;2023-05-19T19:00:44;102063.88;;;16.81;52.31
17781;BME280;8498;52.516;13.790;2023-05-19T19:06:06;102079.66;;;16.73;52.92
17781;BME280;8498;52.516;13.790;2023-05-19T19:11:29;102081.16;;;16.65;53.22
17781;BME280;8498;52.516;13.790;2023-05-19T19:16:51;102062.72;;;16.47;53.86
17781;BME280;8498;52.516;13.790;2023-05-19T19:22:14;102080.06;;;16.42;54.55
17781;BME280;8498;52.516;13.790;2023-05-19T19:27:37;102075.59;;;16.17;55.65
17781;BME280;8498;52.516;13.790;2023-05-19T19:32:59;102076.22;;;16.08;56.45
17781;BME280;8498;52.516;13.790;2023-05-19T19:38:22;102078.31;;;15.90;57.25
17781;BME280;8498;52.516;13.790;2023-05-19T19:43:44;102077.47;;;15.77;58.25
17781;BME280;8498;52.516;13.790;2023-05-19T19:49:07;102073.69;;;15.67;58.82
17781;BME280;8498;52.516;13.790;2023-05-19T19:54:29;102075.16;;;15.58;59.37
17781;BME280;8498;52.516;13.790;2023-05-19T19:59:52;102076.97;;;15.58;59.32
17781;BME280;8498;52.516;13.790;2023-05-19T20:05:18;102072.94;;;15.51;59.39
17781;BME280;8498;52.516;13.790;2023-05-19T20:10:40;102086.53;;;15.48;60.01
17781;BME280;8498;52.516;13.790;2023-05-19T20:16:03;102083.31;;;15.42;60.88
17781;BME280;8498;52.516;13.790;2023-05-19T20:21:25;102083.84;;;15.35;60.92
17781;BME280;8498;52.516;13.790;2023-05-19T20:26:48;102088.56;;;15.17;62.05
17781;BME280;8498;52.516;13.790;2023-05-19T20:32:10;102089.47;;;15.03;63.36
17781;BME280;8498;52.516;13.790;2023-05-19T20:37:32;102090.34;;;14.90;64.52
17781;BME280;8498;52.516;13.790;2023-05-19T20:42:55;102104.50;;;14.78;64.73
17781;BME280;8498;52.516;13.790;2023-05-19T20:48:18;102113.09;;;14.68;65.40
17781;BME280;8498;52.516;13.790;2023-05-19T20:53:40;102109.84;;;14.49;66.74
17781;BME280;8498;52.516;13.790;2023-05-19T20:59:02;102116.78;;;14.38;67.38
17781;BME280;8498;52.516;13.790;2023-05-19T21:04:25;102112.34;;;14.22;67.96
17781;BME280;8498;52.516;13.790;2023-05-19T21:09:47;102110.25;;;14.13;68.27
17781;BME280;8498;52.516;13.790;2023-05-19T21:15:12;102108.97;;;13.90;69.65
17781;BME280;8498;52.516;13.790;2023-05-19T21:20:36;102113.97;;;13.81;70.31
17781;BME280;8498;52.516;13.790;2023-05-19T21:25:59;102119.28;;;13.67;71.16
17781;BME280;8498;52.516;13.790;2023-05-19T21:31:21;102126.97;;;13.57;71.36
17781;BME280;8498;52.516;13.790;2023-05-19T21:36:44;102129.22;;;13.49;71.98
17781;BME280;8498;52.516;13.790;2023-05-19T21:42:09;102136.03;;;13.39;73.03
17781;BME280;8498;52.516;13.790;2023-05-19T21:47:31;102143.88;;;13.26;73.97
17781;BME280;8498;52.516;13.790;2023-05-19T21:52:54;102147.78;;;13.19;74.33
17781;BME280;8498;52.516;13.790;2023-05-19T21:58:16;102140.34;;;13.08;74.25
17781;BME280;8498;52.516;13.790;2023-05-19T22:03:39;102139.41;;;12.94;74.67
17781;BME280;8498;52.516;13.790;2023-05-19T22:09:01;102136.03;;;12.90;75.14
17781;BME280;8498;52.516;13.790;2023-05-19T22:14:24;102138.09;;;12.85;75.63
17781;BME280;8498;52.516;13.790;2023-05-19T22:19:47;102135.75;;;12.79;76.19
17781;BME280;8498;52.516;13.790;2023-05-19T22:25:09;102135.09;;;12.75;76.05
17781;BME280;8498;52.516;13.790;2023-05-19T22:30:33;102127.41;;;12.69;75.91
17781;BME280;8498;52.516;13.790;2023-05-19T22:36:01;102134.09;;;12.61;76.28
17781;BME280;8498;52.516;13.790;2023-05-19T22:41:23;102138.19;;;12.50;77.10
17781;BME280;8498;52.516;13.790;2023-05-19T22:46:46;102144.88;;;12.42;77.56
17781;BME280;8498;52.516;13.790;2023-05-19T22:52:09;102146.03;;;12.36;78.09
17781;BME280;8498;52.516;13.790;2023-05-19T22:57:33;102140.41;;;12.42;77.64
17781;BME280;8498;52.516;13.790;2023-05-19T23:02:58;102146.69;;;12.41;77.51
17781;BME280;8498;52.516;13.790;2023-05-19T23:08:22;102151.22;;;12.39;76.95
17781;BME280;8498;52.516;13.790;2023-05-19T23:13:44;102159.38;;;12.36;77.34
17781;BME280;8498;52.516;13.790;2023-05-19T23:19:07;102162.03;;;12.36;77.06
17781;BME280;8498;52.516;13.790;2023-05-19T23:24:29;102144.66;;;12.29;77.38
17781;BME280;8498;52.516;13.790;2023-05-19T23:29:52;102151.47;;;12.18;78.03
17781;BME280;8498;52.516;13.790;2023-05-19T23:35:15;102144.19;;;12.04;79.05
17781;BME280;8498;52.516;13.790;2023-05-19T23:40:38;102128.50;;;11.98;80.26
17781;BME280;8498;52.516;13.790;2023-05-19T23:46:00;102129.63;;;11.94;80.32
17781;BME280;8498;52.516;13.790;2023-05-19T23:51:23;102119.72;;;11.96;80.08
17781;BME280;8498;52.516;13.790;2023-05-19T23:56:45;102126.97;;;11.94;80.44
